sensor_id;sensor_type;location;lat;lon;timestamp;pressure;altitude;pressure_sealevel;temperature;humidity
58975;BME280;44751;52.236;5.178;2023-03-11T00:00:36;100524.47;;;0.67;100.00
58975;BME280;44751;52.236;5.178;2023-03-11T00:03:05;100525.66;;;0.74;100.00
58975;BME280;44751;52.236;5.178;2023-03-11T00:05:37;100529.03;;;0.76;100.00
58975;BME280;44751;52.236;5.178;2023-03-11T00:08:06;100530.34;;;0.70;100.00
58975;BME280;44751;52.236;5.178;2023-03-11T00:10:35;100533.16;;;0.69;100.00
58975;BME280;44751;52.236;5.178;2023-03-11T00:13:04;100533.63;;;0.62;100.00
58975;BME280;44751;52.236;5.178;2023-03-11T00:15:31;100536.63;;;0.69;100.00
58975;BME280;44751;52.236;5.178;2023-03-11T00:17:58;100538.84;;;0.64;100.00
58975;BME280;44751;52.236;5.178;2023-03-11T00:20:33;100536.63;;;0.69;100.00
58975;BME280;44751;52.236;5.178;2023-03-11T00:23:04;100540.50;;;0.65;100.00
58975;BME280;44751;52.236;5.178;2023-03-11T00:25:32;100545.06;;;0.74;100.00
58975;BME280;44751;52.236;5.178;2023-03-11T00:27:59;100550.28;;;0.64;100.00
58975;BME280;44751;52.236;5.178;2023-03-11T00:30:26;100545.22;;;0.61;100.00
58975;BME280;44751;52.236;5.178;2023-03-11T00:32:57;100539.41;;;0.68;100.00
58975;BME280;44751;52.236;5.178;2023-03-11T00:35:26;100549.44;;;0.75;100.00
58975;BME280;44751;52.236;5.178;2023-03-11T00:37:55;100559.44;;;0.83;100.00
58975;BME280;44751;52.236;5.178;2023-03-11T00:40:23;100559.19;;;0.86;100.00
58975;BME280;44751;52.236;5.178;2023-03-11T00:42:50;100575.63;;;0.80;100.00
58975;BME280;44751;52.236;5.178;2023-03-11T00:45:17;100570.31;;;0.80;100.00
58975;BME280;44751;52.236;5.178;2023-03-11T00:47:44;100575.16;;;0.75;100.00
58975;BME280;44751;52.236;5.178;2023-03-11T00:50:23;100579.59;;;0.74;100.00
58975;BME280;44751;52.236;5.178;2023-03-11T00:52:50;100591.06;;;0.75;100.00
58975;BME280;44751;52.236;5.178;2023-03-11T00:55:27;100576.94;;;0.74;100.00
58975;BME280;44751;52.236;5.178;2023-03-11T00:58:00;100593.84;;;0.62;100.00
58975;BME280;44751;52.236;5.178;2023-03-11T01:00:27;100589.75;;;0.58;100.00
58975;BME280;44751;52.236;5.178;2023-03-11T01:02:58;100587.09;;;0.69;100.00
58975;BME280;44751;52.236;5.178;2023-03-11T01:05:28;100593.97;;;0.72;100.00
58975;BME280;44751;52.236;5.178;2023-03-11T01:07:55;100586.00;;;0.72;100.00
58975;BME280;44751;52.236;5.178;2023-03-11T01:10:22;100592.53;;;0.68;100.00
58975;BME280;44751;52.236;5.178;2023-03-11T01:12:51;100587.94;;;0.81;100.00
58975;BME280;44751;52.236;5.178;2023-03-11T01:15:23;100605.22;;;0.75;100.00
58975;BME280;44751;52.236;5.178;2023-03-11T01:17:50;100596.50;;;0.73;100.00
58975;BME280;44751;52.236;5.178;2023-03-11T01:20:17;100607.88;;;0.75;100.00
58975;BME280;44751;52.236;5.178;2023-03-11T01:22:46;100610.88;;;0.71;100.00
58975;BME280;44751;52.236;5.178;2023-03-11T01:25:14;100607.75;;;0.66;100.00
58975;BME280;44751;52.236;5.178;2023-03-11T01:27:42;100605.91;;;0.77;100.00
58975;BME280;44751;52.236;5.178;2023-03-11T01:30:13;100617.63;;;0.63;100.00
58975;BME280;44751;52.236;5.178;2023-03-11T01:32:46;100611.09;;;0.56;100.00
58975;BME280;44751;52.236;5.178;2023-03-11T01:35:14;100628.00;;;0.67;100.00
58975;BME280;44751;52.236;5.178;2023-03-11T01:37:41;100625.81;;;0.60;100.00
58975;BME280;44751;52.236;5.178;2023-03-11T01:40:13;100624.63;;;0.64;100.00
58975;BME280;44751;52.236;5.178;2023-03-11T01:42:41;100622.34;;;0.60;100.00
58975;BME280;44751;52.236;5.178;2023-03-11T01:47:49;100629.84;;;0.55;100.00
58975;BME280;44751;52.236;5.178;2023-03-11T01:50:16;100621.38;;;0.61;100.00
58975;BME280;44751;52.236;5.178;2023-03-11T01:52:43;100622.47;;;0.58;100.00
58975;BME280;44751;52.236;5.178;2023-03-11T01:55:12;100624.28;;;0.69;100.00
58975;BME280;44751;52.236;5.178;2023-03-11T01:57:40;100621.97;;;0.64;100.00
58975;BME280;44751;52.236;5.178;2023-03-11T02:00:10;100620.13;;;0.42;100.00
58975;BME280;44751;52.236;5.178;2023-03-11T02:02:51;100628.84;;;0.44;100.00
58975;BME280;44751;52.236;5.178;2023-03-11T02:05:21;100632.47;;;0.43;100.00
58975;BME280;44751;52.236;5.178;2023-03-11T02:07:48;100627.84;;;0.34;100.00
58975;BME280;44751;52.236;5.178;2023-03-11T02:10:19;100629.03;;;0.30;100.00
58975;BME280;44751;52.236;5.178;2023-03-11T02:12:48;100624.00;;;0.49;100.00
58975;BME280;44751;52.236;5.178;2023-03-11T02:15:16;100628.34;;;0.39;100.00
58975;BME280;44751;52.236;5.178;2023-03-11T02:17:42;100633.78;;;0.37;100.00
58975;BME280;44751;52.236;5.178;2023-03-11T02:20:31;100638.94;;;0.28;100.00
58975;BME280;44751;52.236;5.178;2023-03-11T02:23:03;100634.34;;;0.30;100.00
58975;BME280;44751;52.236;5.178;2023-03-11T02:25:31;100648.69;;;0.27;100.00
58975;BME280;44751;52.236;5.178;2023-03-11T02:28:02;100637.00;;;0.18;100.00
58975;BME280;44751;52.236;5.178;2023-03-11T02:30:31;100626.38;;;0.18;100.00
58975;BME280;44751;52.236;5.178;2023-03-11T02:33:00;100640.59;;;0.17;100.00
58975;BME280;44751;52.236;5.178;2023-03-11T02:35:29;100635.06;;;0.20;100.00
58975;BME280;44751;52.236;5.178;2023-03-11T02:37:56;100644.06;;;0.06;100.00
58975;BME280;44751;52.236;5.178;2023-03-11T02:42:58;100631.72;;;-0.06;100.00
58975;BME280;44751;52.236;5.178;2023-03-11T02:45:26;100628.81;;;-0.15;100.00
58975;BME280;44751;52.236;5.178;2023-03-11T02:47:55;100626.59;;;-0.21;100.00
58975;BME280;44751;52.236;5.178;2023-03-11T02:50:23;100621.66;;;-0.25;100.00
58975;BME280;44751;52.236;5.178;2023-03-11T02:52:51;100633.09;;;-0.25;100.00
58975;BME280;44751;52.236;5.178;2023-03-11T02:55:19;100631.75;;;-0.31;100.00
58975;BME280;44751;52.236;5.178;2023-03-11T02:57:47;100641.91;;;-0.24;100.00
58975;BME280;44751;52.236;5.178;2023-03-11T03:00:15;100645.69;;;-0.16;100.00
58975;BME280;44751;52.236;5.178;2023-03-11T03:02:46;100643.09;;;-0.29;100.00
58975;BME280;44751;52.236;5.178;2023-03-11T03:05:16;100642.97;;;-0.27;100.00
58975;BME280;44751;52.236;5.178;2023-03-11T03:07:45;100637.91;;;-0.30;100.00
58975;BME280;44751;52.236;5.178;2023-03-11T03:10:12;100642.13;;;-0.28;100.00
58975;BME280;44751;52.236;5.178;2023-03-11T03:12:39;100644.78;;;-0.28;100.00
58975;BME280;44751;52.236;5.178;2023-03-11T03:15:06;100648.84;;;-0.35;100.00
58975;BME280;44751;52.236;5.178;2023-03-11T03:17:34;100657.97;;;-0.39;100.00
58975;BME280;44751;52.236;5.178;2023-03-11T03:20:00;100662.66;;;-0.43;100.00
58975;BME280;44751;52.236;5.178;2023-03-11T03:22:30;100667.56;;;-0.49;100.00
58975;BME280;44751;52.236;5.178;2023-03-11T03:24:56;100668.50;;;-0.50;100.00
58975;BME280;44751;52.236;5.178;2023-03-11T03:27:23;100674.16;;;-0.55;100.00
58975;BME280;44751;52.236;5.178;2023-03-11T03:29:51;100677.63;;;-0.55;100.00
58975;BME280;44751;52.236;5.178;2023-03-11T03:32:18;100670.34;;;-0.51;100.00
58975;BME280;44751;52.236;5.178;2023-03-11T03:34:44;100685.91;;;-0.46;100.00
58975;BME280;44751;52.236;5.178;2023-03-11T03:37:11;100682.00;;;-0.54;100.00
58975;BME280;44751;52.236;5.178;2023-03-11T03:39:37;100680.13;;;-0.64;100.00
58975;BME280;44751;52.236;5.178;2023-03-11T03:42:04;100692.22;;;-0.73;100.00
58975;BME280;44751;52.236;5.178;2023-03-11T03:44:41;100689.78;;;-0.63;100.00
58975;BME280;44751;52.236;5.178;2023-03-11T03:47:07;100696.97;;;-0.66;100.00
58975;BME280;44751;52.236;5.178;2023-03-11T03:49:34;100698.16;;;-0.70;100.00
58975;BME280;44751;52.236;5.178;2023-03-11T03:52:00;100703.53;;;-0.58;100.00
58975;BME280;44751;52.236;5.178;2023-03-11T03:54:29;100708.63;;;-0.68;100.00
58975;BME280;44751;52.236;5.178;2023-03-11T03:57:00;100703.78;;;-0.74;100.00
58975;BME280;44751;52.236;5.178;2023-03-11T03:59:27;100714.78;;;-0.68;100.00
58975;BME280;44751;52.236;5.178;2023-03-11T04:01:53;100722.63;;;-0.66;100.00
58975;BME280;44751;52.236;5.178;2023-03-11T04:04:22;100717.88;;;-0.74;100.00
58975;BME280;44751;52.236;5.178;2023-03-11T04:06:51;100714.59;;;-0.64;100.00
58975;BME280;44751;52.236;5.178;2023-03-11T04:09:18;100719.34;;;-0.70;100.00
58975;BME280;44751;52.236;5.178;2023-03-11T04:11:44;100722.94;;;-0.71;100.00
58975;BME280;44751;52.236;5.178;2023-03-11T04:14:11;100723.16;;;-0.61;100.00
58975;BME280;44751;52.236;5.178;2023-03-11T04:16:37;100727.47;;;-0.60;100.00
58975;BME280;44751;52.236;5.178;2023-03-11T04:19:05;100730.69;;;-0.68;100.00
58975;BME280;44751;52.236;5.178;2023-03-11T04:21:32;100719.34;;;-0.70;100.00
58975;BME280;44751;52.236;5.178;2023-03-11T04:23:59;100725.28;;;-0.66;100.00
58975;BME280;44751;52.236;5.178;2023-03-11T04:26:26;100726.22;;;-0.67;100.00
58975;BME280;44751;52.236;5.178;2023-03-11T04:28:52;100724.13;;;-0.75;100.00
58975;BME280;44751;52.236;5.178;2023-03-11T04:31:19;100732.06;;;-0.75;100.00
58975;BME280;44751;52.236;5.178;2023-03-11T04:33:46;100729.13;;;-0.83;100.00
58975;BME280;44751;52.236;5.178;2023-03-11T04:36:13;100732.94;;;-0.87;100.00
58975;BME280;44751;52.236;5.178;2023-03-11T04:38:40;100725.41;;;-0.81;100.00
58975;BME280;44751;52.236;5.178;2023-03-11T04:41:06;100728.06;;;-0.94;100.00
58975;BME280;44751;52.236;5.178;2023-03-11T04:43:33;100734.88;;;-1.02;100.00
58975;BME280;44751;52.236;5.178;2023-03-11T04:45:59;100745.00;;;-1.09;100.00
58975;BME280;44751;52.236;5.178;2023-03-11T04:48:28;100749.47;;;-1.10;100.00
58975;BME280;44751;52.236;5.178;2023-03-11T04:50:55;100749.38;;;-1.08;100.00
58975;BME280;44751;52.236;5.178;2023-03-11T04:53:22;100748.50;;;-1.22;100.00
58975;BME280;44751;52.236;5.178;2023-03-11T04:55:49;100758.03;;;-1.19;100.00
58975;BME280;44751;52.236;5.178;2023-03-11T04:58:17;100752.53;;;-1.29;100.00
58975;BME280;44751;52.236;5.178;2023-03-11T05:00:46;100755.91;;;-1.40;100.00
58975;BME280;44751;52.236;5.178;2023-03-11T05:03:13;100752.53;;;-1.29;100.00
58975;BME280;44751;52.236;5.178;2023-03-11T05:05:39;100754.53;;;-1.33;100.00
58975;BME280;44751;52.236;5.178;2023-03-11T05:08:05;100751.03;;;-1.46;100.00
58975;BME280;44751;52.236;5.178;2023-03-11T05:10:34;100747.09;;;-1.53;100.00
58975;BME280;44751;52.236;5.178;2023-03-11T05:13:07;100742.34;;;-1.48;100.00
58975;BME280;44751;52.236;5.178;2023-03-11T05:15:33;100746.47;;;-1.57;100.00
58975;BME280;44751;52.236;5.178;2023-03-11T05:18:00;100750.75;;;-1.69;100.00
58975;BME280;44751;52.236;5.178;2023-03-11T05:20:29;100757.97;;;-1.71;100.00
58975;BME280;44751;52.236;5.178;2023-03-11T05:22:56;100755.00;;;-1.66;100.00
58975;BME280;44751;52.236;5.178;2023-03-11T05:25:26;100760.63;;;-1.58;100.00
58975;BME280;44751;52.236;5.178;2023-03-11T05:27:52;100759.47;;;-1.54;100.00
58975;BME280;44751;52.236;5.178;2023-03-11T05:30:19;100758.56;;;-1.80;100.00
58975;BME280;44751;52.236;5.178;2023-03-11T05:32:45;100752.09;;;-1.89;100.00
58975;BME280;44751;52.236;5.178;2023-03-11T05:35:13;100766.03;;;-1.87;100.00
58975;BME280;44751;52.236;5.178;2023-03-11T05:37:42;100778.63;;;-1.91;100.00
58975;BME280;44751;52.236;5.178;2023-03-11T05:40:10;100790.59;;;-1.85;100.00
58975;BME280;44751;52.236;5.178;2023-03-11T05:42:37;100776.78;;;-1.76;100.00
58975;BME280;44751;52.236;5.178;2023-03-11T05:45:06;100779.41;;;-1.76;100.00
58975;BME280;44751;52.236;5.178;2023-03-11T05:47:33;100783.47;;;-1.70;100.00
58975;BME280;44751;52.236;5.178;2023-03-11T05:50:03;100782.94;;;-1.75;100.00
58975;BME280;44751;52.236;5.178;2023-03-11T05:52:29;100786.34;;;-1.88;100.00
58975;BME280;44751;52.236;5.178;2023-03-11T05:54:58;100784.75;;;-1.90;100.00
58975;BME280;44751;52.236;5.178;2023-03-11T05:57:24;100798.53;;;-1.85;100.00
58975;BME280;44751;52.236;5.178;2023-03-11T05:59:51;100789.56;;;-1.83;100.00
58975;BME280;44751;52.236;5.178;2023-03-11T06:02:20;100794.28;;;-1.88;100.00
58975;BME280;44751;52.236;5.178;2023-03-11T06:04:47;100802.72;;;-1.96;100.00
58975;BME280;44751;52.236;5.178;2023-03-11T06:07:14;100810.28;;;-1.89;100.00
58975;BME280;44751;52.236;5.178;2023-03-11T06:09:40;100803.97;;;-2.01;100.00
58975;BME280;44751;52.236;5.178;2023-03-11T06:12:07;100808.00;;;-1.96;100.00
58975;BME280;44751;52.236;5.178;2023-03-11T06:14:36;100811.78;;;-2.00;100.00
58975;BME280;44751;52.236;5.178;2023-03-11T06:17:03;100803.41;;;-2.06;100.00
58975;BME280;44751;52.236;5.178;2023-03-11T06:19:29;100805.56;;;-1.99;100.00
58975;BME280;44751;52.236;5.178;2023-03-11T06:21:55;100809.41;;;-2.32;100.00
58975;BME280;44751;52.236;5.178;2023-03-11T06:24:22;100814.13;;;-2.37;100.00
58975;BME280;44751;52.236;5.178;2023-03-11T06:26:51;100820.19;;;-2.50;100.00
58975;BME280;44751;52.236;5.178;2023-03-11T06:29:20;100821.09;;;-2.51;100.00
58975;BME280;44751;52.236;5.178;2023-03-11T06:31:54;100829.97;;;-2.52;100.00
58975;BME280;44751;52.236;5.178;2023-03-11T06:34:21;100824.59;;;-2.50;100.00
58975;BME280;44751;52.236;5.178;2023-03-11T06:36:50;100828.94;;;-2.49;100.00
58975;BME280;44751;52.236;5.178;2023-03-11T06:39:19;100834.59;;;-2.41;100.00
58975;BME280;44751;52.236;5.178;2023-03-11T06:41:45;100839.41;;;-2.33;100.00
58975;BME280;44751;52.236;5.178;2023-03-11T06:44:12;100828.34;;;-2.25;100.00
58975;BME280;44751;52.236;5.178;2023-03-11T06:46:38;100837.50;;;-2.31;100.00
58975;BME280;44751;52.236;5.178;2023-03-11T06:49:05;100843.94;;;-2.35;100.00
58975;BME280;44751;52.236;5.178;2023-03-11T06:51:35;100830.72;;;-2.35;100.00
58975;BME280;44751;52.236;5.178;2023-03-11T06:54:01;100836.59;;;-2.30;100.00
58975;BME280;44751;52.236;5.178;2023-03-11T06:56:28;100842.88;;;-2.33;100.00
58975;BME280;44751;52.236;5.178;2023-03-11T06:58:54;100847.91;;;-2.28;100.00
58975;BME280;44751;52.236;5.178;2023-03-11T07:01:23;100845.53;;;-2.33;100.00
58975;BME280;44751;52.236;5.178;2023-03-11T07:03:54;100855.09;;;-2.30;100.00
58975;BME280;44751;52.236;5.178;2023-03-11T07:06:23;100874.59;;;-2.18;100.00
58975;BME280;44751;52.236;5.178;2023-03-11T07:08:51;100871.59;;;-2.12;100.00
58975;BME280;44751;52.236;5.178;2023-03-11T07:11:23;100875.25;;;-2.14;100.00
58975;BME280;44751;52.236;5.178;2023-03-11T07:13:52;100872.44;;;-2.11;100.00
58975;BME280;44751;52.236;5.178;2023-03-11T07:16:21;100871.38;;;-2.09;100.00
58975;BME280;44751;52.236;5.178;2023-03-11T07:18:49;100873.75;;;-2.04;100.00
58975;BME280;44751;52.236;5.178;2023-03-11T07:21:18;100880.91;;;-2.06;100.00
58975;BME280;44751;52.236;5.178;2023-03-11T07:23:56;100891.03;;;-1.98;100.00
58975;BME280;44751;52.236;5.178;2023-03-11T07:26:23;100888.75;;;-1.90;100.00
58975;BME280;44751;52.236;5.178;2023-03-11T07:28:50;100894.09;;;-1.77;100.00
58975;BME280;44751;52.236;5.178;2023-03-11T07:31:20;100893.69;;;-1.56;100.00
58975;BME280;44751;52.236;5.178;2023-03-11T07:33:48;100889.97;;;-1.53;100.00
58975;BME280;44751;52.236;5.178;2023-03-11T07:36:17;100888.44;;;-1.43;100.00
58975;BME280;44751;52.236;5.178;2023-03-11T07:38:44;100895.59;;;-1.18;100.00
58975;BME280;44751;52.236;5.178;2023-03-11T07:41:12;100878.34;;;-1.10;100.00
58975;BME280;44751;52.236;5.178;2023-03-11T07:43:41;100889.94;;;-0.98;100.00
58975;BME280;44751;52.236;5.178;2023-03-11T07:46:13;100891.97;;;-0.89;100.00
58975;BME280;44751;52.236;5.178;2023-03-11T07:48:43;100879.78;;;-0.92;100.00
58975;BME280;44751;52.236;5.178;2023-03-11T07:51:16;100894.94;;;-0.81;100.00
58975;BME280;44751;52.236;5.178;2023-03-11T07:53:43;100895.91;;;-0.82;100.00
58975;BME280;44751;52.236;5.178;2023-03-11T07:56:11;100892.09;;;-0.77;100.00
58975;BME280;44751;52.236;5.178;2023-03-11T07:58:38;100898.91;;;-0.60;100.00
58975;BME280;44751;52.236;5.178;2023-03-11T08:01:08;100909.91;;;-0.41;100.00
58975;BME280;44751;52.236;5.178;2023-03-11T08:03:35;100911.94;;;-0.31;100.00
58975;BME280;44751;52.236;5.178;2023-03-11T08:06:02;100918.63;;;0.62;100.00
58975;BME280;44751;52.236;5.178;2023-03-11T08:08:28;100925.47;;;1.73;100.00
58975;BME280;44751;52.236;5.178;2023-03-11T08:10:54;100927.06;;;2.10;100.00
58975;BME280;44751;52.236;5.178;2023-03-11T08:13:21;100920.88;;;2.43;100.00
58975;BME280;44751;52.236;5.178;2023-03-11T08:15:47;100929.16;;;3.27;100.00
58975;BME280;44751;52.236;5.178;2023-03-11T08:18:16;100931.78;;;3.91;100.00
58975;BME280;44751;52.236;5.178;2023-03-11T08:20:42;100931.13;;;5.59;100.00
58975;BME280;44751;52.236;5.178;2023-03-11T08:23:10;100942.53;;;6.65;100.00
58975;BME280;44751;52.236;5.178;2023-03-11T08:25:40;100942.31;;;7.31;100.00
58975;BME280;44751;52.236;5.178;2023-03-11T08:28:07;100945.31;;;8.42;100.00
58975;BME280;44751;52.236;5.178;2023-03-11T08:30:35;100943.63;;;9.01;100.00
58975;BME280;44751;52.236;5.178;2023-03-11T08:33:02;100954.31;;;9.92;100.00
58975;BME280;44751;52.236;5.178;2023-03-11T08:35:30;100954.53;;;10.31;100.00
58975;BME280;44751;52.236;5.178;2023-03-11T08:37:56;100951.34;;;9.71;100.00
58975;BME280;44751;52.236;5.178;2023-03-11T08:40:23;100963.50;;;6.97;96.40
58975;BME280;44751;52.236;5.178;2023-03-11T08:42:54;100951.59;;;5.98;100.00
58975;BME280;44751;52.236;5.178;2023-03-11T08:45:22;100954.41;;;5.28;100.00
58975;BME280;44751;52.236;5.178;2023-03-11T08:47:49;100947.66;;;4.85;100.00
58975;BME280;44751;52.236;5.178;2023-03-11T08:50:18;100956.78;;;4.62;100.00
58975;BME280;44751;52.236;5.178;2023-03-11T08:52:45;100966.06;;;4.78;100.00
58975;BME280;44751;52.236;5.178;2023-03-11T08:55:16;100973.56;;;5.14;100.00
58975;BME280;44751;52.236;5.178;2023-03-11T08:57:49;100962.59;;;5.27;100.00
58975;BME280;44751;52.236;5.178;2023-03-11T09:00:16;100973.97;;;5.29;100.00
58975;BME280;44751;52.236;5.178;2023-03-11T09:02:45;100969.88;;;5.54;100.00
58975;BME280;44751;52.236;5.178;2023-03-11T09:05:12;100967.34;;;5.43;100.00
58975;BME280;44751;52.236;5.178;2023-03-11T09:07:39;100972.97;;;4.71;100.00
58975;BME280;44751;52.236;5.178;2023-03-11T09:10:06;100990.63;;;4.21;100.00
58975;BME280;44751;52.236;5.178;2023-03-11T09:12:32;100997.94;;;4.50;100.00
58975;BME280;44751;52.236;5.178;2023-03-11T09:14:59;100989.56;;;4.74;100.00
58975;BME280;44751;52.236;5.178;2023-03-11T09:17:27;100985.81;;;5.07;100.00
58975;BME280;44751;52.236;5.178;2023-03-11T09:19:55;100987.91;;;4.93;100.00
58975;BME280;44751;52.236;5.178;2023-03-11T09:22:21;100990.28;;;4.96;100.00
58975;BME280;44751;52.236;5.178;2023-03-11T09:24:48;100976.09;;;5.06;100.00
58975;BME280;44751;52.236;5.178;2023-03-11T09:27:14;100989.59;;;4.94;100.00
58975;BME280;44751;52.236;5.178;2023-03-11T09:29:41;100992.25;;;4.94;100.00
58975;BME280;44751;52.236;5.178;2023-03-11T09:32:12;100999.19;;;5.16;100.00
58975;BME280;44751;52.236;5.178;2023-03-11T09:34:39;100998.44;;;4.75;100.00
58975;BME280;44751;52.236;5.178;2023-03-11T09:37:05;100993.72;;;4.57;100.00
58975;BME280;44751;52.236;5.178;2023-03-11T09:39:32;100999.00;;;4.88;100.00
58975;BME280;44751;52.236;5.178;2023-03-11T09:42:19;100989.84;;;4.81;100.00
58975;BME280;44751;52.236;5.178;2023-03-11T09:50:29;100991.31;;;6.22;100.00
58975;BME280;44751;52.236;5.178;2023-03-11T09:53:31;101002.13;;;7.41;100.00
58975;BME280;44751;52.236;5.178;2023-03-11T09:56:05;100994.66;;;8.33;100.00
58975;BME280;44751;52.236;5.178;2023-03-11T09:58:41;100987.78;;;8.04;100.00
58975;BME280;44751;52.236;5.178;2023-03-11T10:01:16;100993.44;;;6.93;100.00
58975;BME280;44751;52.236;5.178;2023-03-11T10:03:44;100987.94;;;6.10;100.00
58975;BME280;44751;52.236;5.178;2023-03-11T10:06:24;100994.53;;;6.54;100.00
58975;BME280;44751;52.236;5.178;2023-03-11T10:11:42;100998.44;;;5.64;100.00
58975;BME280;44751;52.236;5.178;2023-03-11T10:14:19;101006.84;;;5.99;100.00
58975;BME280;44751;52.236;5.178;2023-03-11T10:19:38;101003.50;;;5.77;100.00
58975;BME280;44751;52.236;5.178;2023-03-11T10:22:26;100999.94;;;6.06;100.00
58975;BME280;44751;52.236;5.178;2023-03-11T10:25:00;100999.00;;;5.87;100.00
58975;BME280;44751;52.236;5.178;2023-03-11T10:27:47;101007.69;;;5.99;100.00
58975;BME280;44751;52.236;5.178;2023-03-11T10:30:33;101006.16;;;6.06;100.00
58975;BME280;44751;52.236;5.178;2023-03-11T10:35:41;101005.50;;;6.61;100.00
58975;BME280;44751;52.236;5.178;2023-03-11T10:38:23;100996.84;;;6.95;100.00
58975;BME280;44751;52.236;5.178;2023-03-11T10:40:54;101005.44;;;6.70;100.00
58975;BME280;44751;52.236;5.178;2023-03-11T10:43:28;100996.34;;;6.81;100.00
58975;BME280;44751;52.236;5.178;2023-03-11T10:45:57;101002.22;;;7.13;100.00
58975;BME280;44751;52.236;5.178;2023-03-11T10:48:24;101001.06;;;6.97;100.00
58975;BME280;44751;52.236;5.178;2023-03-11T10:51:00;101000.75;;;7.01;100.00
58975;BME280;44751;52.236;5.178;2023-03-11T10:53:30;100995.25;;;7.20;100.00
58975;BME280;44751;52.236;5.178;2023-03-11T10:55:58;101001.13;;;6.88;100.00
58975;BME280;44751;52.236;5.178;2023-03-11T10:58:28;101003.53;;;6.63;100.00
58975;BME280;44751;52.236;5.178;2023-03-11T11:01:15;101007.59;;;7.31;100.00
58975;BME280;44751;52.236;5.178;2023-03-11T11:03:47;101008.94;;;7.54;100.00
58975;BME280;44751;52.236;5.178;2023-03-11T11:06:23;101021.44;;;7.90;100.00
58975;BME280;44751;52.236;5.178;2023-03-11T11:09:17;101018.88;;;7.80;100.00
58975;BME280;44751;52.236;5.178;2023-03-11T11:12:11;101018.66;;;6.82;100.00
58975;BME280;44751;52.236;5.178;2023-03-11T11:14:50;101030.94;;;7.03;100.00
58975;BME280;44751;52.236;5.178;2023-03-11T11:17:29;101026.97;;;7.25;100.00
58975;BME280;44751;52.236;5.178;2023-03-11T11:20:01;101029.78;;;7.05;100.00
58975;BME280;44751;52.236;5.178;2023-03-11T11:22:37;101019.91;;;7.06;100.00
58975;BME280;44751;52.236;5.178;2023-03-11T11:25:31;101015.84;;;7.38;100.00
58975;BME280;44751;52.236;5.178;2023-03-11T11:28:02;101029.22;;;7.30;99.82
58975;BME280;44751;52.236;5.178;2023-03-11T11:30:32;101023.81;;;6.93;100.00
58975;BME280;44751;52.236;5.178;2023-03-11T11:34:01;101024.44;;;7.05;100.00
58975;BME280;44751;52.236;5.178;2023-03-11T11:36:15;101025.06;;;6.71;100.00
58975;BME280;44751;52.236;5.178;2023-03-11T11:38:43;101018.28;;;6.49;100.00
58975;BME280;44751;52.236;5.178;2023-03-11T11:41:15;101019.69;;;6.05;98.80
58975;BME280;44751;52.236;5.178;2023-03-11T11:43:49;101015.84;;;6.17;100.00
58975;BME280;44751;52.236;5.178;2023-03-11T11:46:40;101025.53;;;6.28;100.00
58975;BME280;44751;52.236;5.178;2023-03-11T11:51:43;101015.22;;;6.62;100.00
58975;BME280;44751;52.236;5.178;2023-03-11T11:54:17;101013.94;;;6.38;100.00
58975;BME280;44751;52.236;5.178;2023-03-11T11:56:45;101027.75;;;6.71;100.00
58975;BME280;44751;52.236;5.178;2023-03-11T11:59:20;101029.72;;;6.69;100.00
58975;BME280;44751;52.236;5.178;2023-03-11T12:17:39;101003.31;;;6.18;100.00
58975;BME280;44751;52.236;5.178;2023-03-11T12:20:13;101006.34;;;6.33;100.00
58975;BME280;44751;52.236;5.178;2023-03-11T12:23:05;101010.06;;;6.22;100.00
58975;BME280;44751;52.236;5.178;2023-03-11T12:25:35;100999.50;;;6.01;98.50
58975;BME280;44751;52.236;5.178;2023-03-11T12:28:04;101000.22;;;5.93;98.19
58975;BME280;44751;52.236;5.178;2023-03-11T12:30:45;101001.06;;;5.93;93.52
58975;BME280;44751;52.236;5.178;2023-03-11T12:33:36;101007.56;;;6.11;98.29
58975;BME280;44751;52.236;5.178;2023-03-11T12:36:24;101001.09;;;6.03;95.80
58975;BME280;44751;52.236;5.178;2023-03-11T12:38:54;101003.31;;;6.18;95.93
58975;BME280;44751;52.236;5.178;2023-03-11T12:44:03;101000.47;;;6.19;100.00
58975;BME280;44751;52.236;5.178;2023-03-11T12:49:25;101002.88;;;6.03;100.00
58975;BME280;44751;52.236;5.178;2023-03-11T12:52:04;101005.56;;;6.03;99.65
58975;BME280;44751;52.236;5.178;2023-03-11T12:54:32;101007.56;;;6.11;100.00
58975;BME280;44751;52.236;5.178;2023-03-11T13:02:35;101003.44;;;6.16;98.42
58975;BME280;44751;52.236;5.178;2023-03-11T13:05:26;101015.00;;;6.17;94.91
58975;BME280;44751;52.236;5.178;2023-03-11T13:08:08;101008.06;;;6.24;95.09
58975;BME280;44751;52.236;5.178;2023-03-11T13:10:44;101006.69;;;6.10;95.01
58975;BME280;44751;52.236;5.178;2023-03-11T13:15:48;101014.84;;;6.18;92.43
58975;BME280;44751;52.236;5.178;2023-03-11T13:18:24;101005.72;;;6.01;87.54
58975;BME280;44751;52.236;5.178;2023-03-11T13:20:57;101006.81;;;6.18;93.30
58975;BME280;44751;52.236;5.178;2023-03-11T13:23:37;101009.47;;;6.18;98.71
58975;BME280;44751;52.236;5.178;2023-03-11T13:26:27;101003.63;;;6.05;90.39
58975;BME280;44751;52.236;5.178;2023-03-11T13:34:20;100996.66;;;6.22;92.20
58975;BME280;44751;52.236;5.178;2023-03-11T13:42:55;100997.38;;;6.98;96.04
58975;BME280;44751;52.236;5.178;2023-03-11T13:45:32;101001.25;;;6.86;91.07
58975;BME280;44751;52.236;5.178;2023-03-11T13:48:13;101005.22;;;6.64;90.56
58975;BME280;44751;52.236;5.178;2023-03-11T13:50:48;101013.19;;;6.45;90.82
58975;BME280;44751;52.236;5.178;2023-03-11T13:53:20;101005.69;;;6.49;91.37
58975;BME280;44751;52.236;5.178;2023-03-11T13:55:49;101017.56;;;6.75;90.37
58975;BME280;44751;52.236;5.178;2023-03-11T13:58:25;101016.13;;;6.52;90.98
58975;BME280;44751;52.236;5.178;2023-03-11T14:00:56;101009.19;;;6.59;88.39
58975;BME280;44751;52.236;5.178;2023-03-11T14:03:25;101016.03;;;6.72;87.86
58975;BME280;44751;52.236;5.178;2023-03-11T14:05:57;101006.84;;;6.46;87.20